sensor_id;sensor_type;location;lat;lon;timestamp;pressure;altitude;pressure_sealevel;temperature;humidity
68433;BME280;55412;51.350;17.056;2024-01-30T00:02:17;101847.31;;;0.76;73.33
68433;BME280;55412;51.350;17.056;2024-01-30T00:04:43;101859.75;;;0.85;73.29
68433;BME280;55412;51.350;17.056;2024-01-30T00:07:09;101858.50;;;0.78;73.03
68433;BME280;55412;51.350;17.056;2024-01-30T00:09:34;101856.25;;;0.69;73.07
68433;BME280;55412;51.350;17.056;2024-01-30T00:12:00;101859.78;;;0.71;73.19
68433;BME280;55412;51.350;17.056;2024-01-30T00:14:26;101850.44;;;0.72;73.65
68433;BME280;55412;51.350;17.056;2024-01-30T00:16:51;101850.19;;;0.67;73.00
68433;BME280;55412;51.350;17.056;2024-01-30T00:19:17;101849.59;;;0.58;73.26
68433;BME280;55412;51.350;17.056;2024-01-30T00:21:43;101846.81;;;0.40;72.95
68433;BME280;55412;51.350;17.056;2024-01-30T00:24:09;101853.91;;;0.31;72.94
68433;BME280;55412;51.350;17.056;2024-01-30T00:26:35;101842.59;;;0.27;73.46
68433;BME280;55412;51.350;17.056;2024-01-30T00:29:00;101841.31;;;0.21;73.61
68433;BME280;55412;51.350;17.056;2024-01-30T00:31:26;101842.72;;;0.16;73.62
68433;BME280;55412;51.350;17.056;2024-01-30T00:33:52;101842.91;;;0.19;73.41
68433;BME280;55412;51.350;17.056;2024-01-30T00:36:17;101849.84;;;0.21;73.74
68433;BME280;55412;51.350;17.056;2024-01-30T00:38:43;101847.50;;;0.24;73.69
68433;BME280;55412;51.350;17.056;2024-01-30T00:41:09;101846.03;;;0.28;74.10
68433;BME280;55412;51.350;17.056;2024-01-30T00:43:35;101848.88;;;0.33;74.27
68433;BME280;55412;51.350;17.056;2024-01-30T00:46:01;101845.84;;;0.38;73.86
68433;BME280;55412;51.350;17.056;2024-01-30T00:48:27;101846.97;;;0.43;74.05
68433;BME280;55412;51.350;17.056;2024-01-30T00:50:53;101849.91;;;0.49;73.87
68433;BME280;55412;51.350;17.056;2024-01-30T00:53:18;101838.72;;;0.47;73.91
68433;BME280;55412;51.350;17.056;2024-01-30T00:55:44;101851.00;;;0.53;74.37
68433;BME280;55412;51.350;17.056;2024-01-30T00:58:10;101846.78;;;0.53;73.61
68433;BME280;55412;51.350;17.056;2024-01-30T01:00:35;101842.72;;;0.57;73.95
68433;BME280;55412;51.350;17.056;2024-01-30T01:03:01;101843.03;;;0.62;74.16
68433;BME280;55412;51.350;17.056;2024-01-30T01:05:27;101842.78;;;0.72;73.93
68433;BME280;55412;51.350;17.056;2024-01-30T01:07:53;101845.00;;;0.80;73.96
68433;BME280;55412;51.350;17.056;2024-01-30T01:10:19;101839.78;;;0.92;73.98
68433;BME280;55412;51.350;17.056;2024-01-30T01:12:45;101839.63;;;1.04;73.74
68433;BME280;55412;51.350;17.056;2024-01-30T01:15:11;101843.28;;;1.22;74.29
68433;BME280;55412;51.350;17.056;2024-01-30T01:17:39;101834.19;;;1.27;73.42
68433;BME280;55412;51.350;17.056;2024-01-30T01:20:06;101838.16;;;1.37;73.84
68433;BME280;55412;51.350;17.056;2024-01-30T01:22:32;101835.00;;;1.41;73.35
68433;BME280;55412;51.350;17.056;2024-01-30T01:25:01;101833.50;;;1.45;73.71
68433;BME280;55412;51.350;17.056;2024-01-30T01:27:27;101831.22;;;1.49;73.33
68433;BME280;55412;51.350;17.056;2024-01-30T01:29:53;101820.34;;;1.53;73.39
68433;BME280;55412;51.350;17.056;2024-01-30T01:32:19;101826.69;;;1.60;73.42
68433;BME280;55412;51.350;17.056;2024-01-30T01:34:45;101826.09;;;1.64;73.25
68433;BME280;55412;51.350;17.056;2024-01-30T01:37:11;101826.91;;;1.63;73.14
68433;BME280;55412;51.350;17.056;2024-01-30T01:39:37;101821.84;;;1.64;73.35
68433;BME280;55412;51.350;17.056;2024-01-30T01:42:03;101832.53;;;1.72;73.30
68433;BME280;55412;51.350;17.056;2024-01-30T01:44:28;101826.69;;;1.75;72.70
68433;BME280;55412;51.350;17.056;2024-01-30T01:46:54;101824.31;;;1.78;73.14
68433;BME280;55412;51.350;17.056;2024-01-30T01:49:29;101825.22;;;1.78;73.16
68433;BME280;55412;51.350;17.056;2024-01-30T01:51:55;101825.22;;;1.78;73.07
68433;BME280;55412;51.350;17.056;2024-01-30T01:54:22;101830.06;;;1.74;72.87
68433;BME280;55412;51.350;17.056;2024-01-30T01:56:49;101818.66;;;1.69;72.32
68433;BME280;55412;51.350;17.056;2024-01-30T01:59:17;101822.47;;;1.60;72.63
68433;BME280;55412;51.350;17.056;2024-01-30T02:01:43;101821.78;;;1.63;72.86
68433;BME280;55412;51.350;17.056;2024-01-30T02:04:11;101817.09;;;1.71;72.73
68433;BME280;55412;51.350;17.056;2024-01-30T02:06:37;101817.09;;;1.71;72.91
68433;BME280;55412;51.350;17.056;2024-01-30T02:09:03;101816.44;;;1.75;72.73
68433;BME280;55412;51.350;17.056;2024-01-30T02:11:30;101819.81;;;1.74;72.75
68433;BME280;55412;51.350;17.056;2024-01-30T02:13:56;101820.63;;;1.73;73.03
68433;BME280;55412;51.350;17.056;2024-01-30T02:16:21;101810.22;;;1.70;73.08
68433;BME280;55412;51.350;17.056;2024-01-30T02:18:47;101817.69;;;1.81;72.89
68433;BME280;55412;51.350;17.056;2024-01-30T02:21:17;101823.59;;;1.80;72.61
68433;BME280;55412;51.350;17.056;2024-01-30T02:23:44;101829.34;;;1.76;72.52
68433;BME280;55412;51.350;17.056;2024-01-30T02:26:12;101817.19;;;1.72;72.71
68433;BME280;55412;51.350;17.056;2024-01-30T02:28:38;101823.69;;;1.67;72.50
68433;BME280;55412;51.350;17.056;2024-01-30T02:31:04;101829.63;;;1.66;72.86
68433;BME280;55412;51.350;17.056;2024-01-30T02:33:30;101822.91;;;1.68;72.77
68433;BME280;55412;51.350;17.056;2024-01-30T02:35:56;101826.09;;;1.64;73.02
68433;BME280;55412;51.350;17.056;2024-01-30T02:38:22;101826.69;;;1.60;72.86
68433;BME280;55412;51.350;17.056;2024-01-30T02:40:49;101825.81;;;1.59;72.59
68433;BME280;55412;51.350;17.056;2024-01-30T02:43:16;101824.84;;;1.57;72.68
68433;BME280;55412;51.350;17.056;2024-01-30T02:45:42;101833.25;;;1.55;72.49
68433;BME280;55412;51.350;17.056;2024-01-30T02:48:08;101832.47;;;1.56;72.74
68433;BME280;55412;51.350;17.056;2024-01-30T02:50:33;101834.22;;;1.57;73.32
68433;BME280;55412;51.350;17.056;2024-01-30T02:52:59;101835.91;;;1.56;73.25
68433;BME280;55412;51.350;17.056;2024-01-30T02:55:25;101822.75;;;1.50;72.84
68433;BME280;55412;51.350;17.056;2024-01-30T02:57:51;101818.50;;;1.51;73.08
68433;BME280;55412;51.350;17.056;2024-01-30T03:00:17;101824.78;;;1.56;73.50
68433;BME280;55412;51.350;17.056;2024-01-30T03:02:42;101811.69;;;1.66;72.92
68433;BME280;55412;51.350;17.056;2024-01-30T03:05:08;101815.50;;;1.73;73.36
68433;BME280;55412;51.350;17.056;2024-01-30T03:07:34;101815.63;;;1.90;73.08
68433;BME280;55412;51.350;17.056;2024-01-30T03:10:00;101811.59;;;1.94;72.67
68433;BME280;55412;51.350;17.056;2024-01-30T03:12:26;101818.53;;;1.97;72.92
68433;BME280;55412;51.350;17.056;2024-01-30T03:14:51;101817.75;;;1.98;72.82
68433;BME280;55412;51.350;17.056;2024-01-30T03:17:17;101818.19;;;1.90;72.43
68433;BME280;55412;51.350;17.056;2024-01-30T03:19:43;101820.75;;;1.90;72.57
68433;BME280;55412;51.350;17.056;2024-01-30T03:22:09;101816.34;;;1.88;72.44
68433;BME280;55412;51.350;17.056;2024-01-30T03:24:35;101815.41;;;1.86;72.26
68433;BME280;55412;51.350;17.056;2024-01-30T03:27:02;101810.88;;;1.82;72.31
68433;BME280;55412;51.350;17.056;2024-01-30T03:29:28;101808.53;;;1.85;72.74
68433;BME280;55412;51.350;17.056;2024-01-30T03:31:54;101808.75;;;1.89;72.67
68433;BME280;55412;51.350;17.056;2024-01-30T03:34:19;101807.19;;;1.91;72.99
68433;BME280;55412;51.350;17.056;2024-01-30T03:36:45;101807.25;;;1.93;72.86
68433;BME280;55412;51.350;17.056;2024-01-30T03:39:11;101807.19;;;1.91;72.46
68433;BME280;55412;51.350;17.056;2024-01-30T03:41:36;101806.84;;;1.85;72.02
68433;BME280;55412;51.350;17.056;2024-01-30T03:44:02;101796.41;;;1.82;72.35
68433;BME280;55412;51.350;17.056;2024-01-30T03:46:28;101796.16;;;1.78;72.38
68433;BME280;55412;51.350;17.056;2024-01-30T03:48:54;101794.94;;;1.71;72.46
68433;BME280;55412;51.350;17.056;2024-01-30T03:51:19;101792.91;;;1.65;72.19
68433;BME280;55412;51.350;17.056;2024-01-30T03:53:45;101800.31;;;1.61;72.74
68433;BME280;55412;51.350;17.056;2024-01-30T03:56:14;101798.19;;;1.54;72.52
68433;BME280;55412;51.350;17.056;2024-01-30T03:58:40;101791.69;;;1.44;72.71
68433;BME280;55412;51.350;17.056;2024-01-30T04:01:05;101794.69;;;1.37;72.62
68433;BME280;55412;51.350;17.056;2024-01-30T04:03:31;101803.50;;;1.27;72.34
68433;BME280;55412;51.350;17.056;2024-01-30T04:05:57;101799.34;;;1.15;72.31
68433;BME280;55412;51.350;17.056;2024-01-30T04:08:22;101794.28;;;1.01;72.39
68433;BME280;55412;51.350;17.056;2024-01-30T04:10:48;101801.72;;;0.97;72.73
68433;BME280;55412;51.350;17.056;2024-01-30T04:13:14;101799.59;;;0.90;72.75
68433;BME280;55412;51.350;17.056;2024-01-30T04:15:40;101789.06;;;0.85;73.38
68433;BME280;55412;51.350;17.056;2024-01-30T04:18:06;101804.03;;;0.79;72.67
68433;BME280;55412;51.350;17.056;2024-01-30T04:20:31;101802.53;;;0.68;72.86
68433;BME280;55412;51.350;17.056;2024-01-30T04:22:57;101813.06;;;0.59;72.72
68433;BME280;55412;51.350;17.056;2024-01-30T04:25:23;101802.97;;;0.47;73.45
68433;BME280;55412;51.350;17.056;2024-01-30T04:27:48;101812.50;;;0.37;73.25
68433;BME280;55412;51.350;17.056;2024-01-30T04:30:15;101807.94;;;0.31;73.57
68433;BME280;55412;51.350;17.056;2024-01-30T04:32:40;101812.94;;;0.30;73.93
68433;BME280;55412;51.350;17.056;2024-01-30T04:35:07;101810.09;;;0.25;73.94
68433;BME280;55412;51.350;17.056;2024-01-30T04:37:32;101809.72;;;0.19;73.96
68433;BME280;55412;51.350;17.056;2024-01-30T04:39:58;101813.13;;;0.19;74.21
68433;BME280;55412;51.350;17.056;2024-01-30T04:42:23;101806.19;;;0.17;74.10
68433;BME280;55412;51.350;17.056;2024-01-30T04:44:49;101810.31;;;0.15;74.25
68433;BME280;55412;51.350;17.056;2024-01-30T04:47:15;101817.97;;;0.15;74.25
68433;BME280;55412;51.350;17.056;2024-01-30T04:49:41;101810.09;;;0.12;74.20
68433;BME280;55412;51.350;17.056;2024-01-30T04:52:08;101803.72;;;0.05;74.17
68433;BME280;55412;51.350;17.056;2024-01-30T04:54:37;101805.50;;;0.06;74.11
68433;BME280;55412;51.350;17.056;2024-01-30T04:57:03;101813.16;;;0.06;74.24
68433;BME280;55412;51.350;17.056;2024-01-30T04:59:28;101805.41;;;0.05;74.02
68433;BME280;55412;51.350;17.056;2024-01-30T05:01:54;101814.63;;;0.03;74.22
68433;BME280;55412;51.350;17.056;2024-01-30T05:04:20;101806.59;;;-0.04;74.46
68433;BME280;55412;51.350;17.056;2024-01-30T05:06:46;101805.81;;;-0.03;74.27
68433;BME280;55412;51.350;17.056;2024-01-30T05:09:12;101808.25;;;-0.04;74.26
68433;BME280;55412;51.350;17.056;2024-01-30T05:11:39;101800.44;;;-0.07;74.25
68433;BME280;55412;51.350;17.056;2024-01-30T05:14:05;101812.50;;;-0.05;74.39
68433;BME280;55412;51.350;17.056;2024-01-30T05:16:31;101808.84;;;-0.08;74.76
68433;BME280;55412;51.350;17.056;2024-01-30T05:18:57;101792.16;;;-0.16;74.39
68433;BME280;55412;51.350;17.056;2024-01-30T05:21:23;101808.56;;;-0.13;74.26
68433;BME280;55412;51.350;17.056;2024-01-30T05:23:48;101814.47;;;-0.14;74.68
68433;BME280;55412;51.350;17.056;2024-01-30T05:26:14;101812.66;;;-0.15;74.81
68433;BME280;55412;51.350;17.056;2024-01-30T05:28:40;101819.34;;;-0.17;74.44
68433;BME280;55412;51.350;17.056;2024-01-30T05:31:06;101813.28;;;-0.19;74.86
68433;BME280;55412;51.350;17.056;2024-01-30T05:33:31;101814.84;;;-0.21;74.36
68433;BME280;55412;51.350;17.056;2024-01-30T05:35:57;101804.53;;;-0.22;74.55
68433;BME280;55412;51.350;17.056;2024-01-30T05:38:23;101812.16;;;-0.22;74.91
68433;BME280;55412;51.350;17.056;2024-01-30T05:40:48;101806.97;;;-0.24;75.06
68433;BME280;55412;51.350;17.056;2024-01-30T05:43:14;101811.09;;;-0.26;75.19
68433;BME280;55412;51.350;17.056;2024-01-30T05:45:40;101817.00;;;-0.27;74.92
68433;BME280;55412;51.350;17.056;2024-01-30T05:48:06;101808.38;;;-0.29;74.89
68433;BME280;55412;51.350;17.056;2024-01-30T05:50:32;101805.69;;;-0.31;75.20
68433;BME280;55412;51.350;17.056;2024-01-30T05:52:57;101819.25;;;-0.32;74.88
68433;BME280;55412;51.350;17.056;2024-01-30T05:55:23;101816.59;;;-0.33;75.01
68433;BME280;55412;51.350;17.056;2024-01-30T05:57:49;101813.88;;;-0.36;75.21
68433;BME280;55412;51.350;17.056;2024-01-30T06:00:15;101803.75;;;-0.35;74.99
68433;BME280;55412;51.350;17.056;2024-01-30T06:02:41;101807.28;;;-0.33;75.08
68433;BME280;55412;51.350;17.056;2024-01-30T06:05:07;101801.47;;;-0.30;75.46
68433;BME280;55412;51.350;17.056;2024-01-30T06:07:33;101798.34;;;-0.26;75.55
68433;BME280;55412;51.350;17.056;2024-01-30T06:09:58;101800.69;;;-0.16;75.67
68433;BME280;55412;51.350;17.056;2024-01-30T06:12:27;101810.25;;;-0.13;75.35
68433;BME280;55412;51.350;17.056;2024-01-30T06:14:53;101806.19;;;-0.10;75.58
68433;BME280;55412;51.350;17.056;2024-01-30T06:17:22;101798.53;;;-0.10;75.17
68433;BME280;55412;51.350;17.056;2024-01-30T06:19:48;101808.25;;;-0.04;75.44
68433;BME280;55412;51.350;17.056;2024-01-30T06:22:15;101807.16;;;0.06;75.48
68433;BME280;55412;51.350;17.056;2024-01-30T06:24:41;101808.34;;;0.11;75.19
68433;BME280;55412;51.350;17.056;2024-01-30T06:27:06;101810.91;;;0.11;75.17
68433;BME280;55412;51.350;17.056;2024-01-30T06:29:32;101816.50;;;0.05;75.22
68433;BME280;55412;51.350;17.056;2024-01-30T06:31:58;101808.84;;;-0.08;74.85
68433;BME280;55412;51.350;17.056;2024-01-30T06:34:24;101828.09;;;-0.13;74.96
68433;BME280;55412;51.350;17.056;2024-01-30T06:36:51;101821.63;;;-0.21;74.66
68433;BME280;55412;51.350;17.056;2024-01-30T06:39:17;101830.31;;;-0.31;74.98
68433;BME280;55412;51.350;17.056;2024-01-30T06:41:43;101836.91;;;-0.35;75.33
68433;BME280;55412;51.350;17.056;2024-01-30T06:44:08;101837.47;;;-0.39;75.49
68433;BME280;55412;51.350;17.056;2024-01-30T06:46:35;101827.97;;;-0.41;75.40
68433;BME280;55412;51.350;17.056;2024-01-30T06:49:01;101837.38;;;-0.40;75.49
68433;BME280;55412;51.350;17.056;2024-01-30T06:51:26;101840.91;;;-0.38;75.78
68433;BME280;55412;51.350;17.056;2024-01-30T06:53:52;101837.00;;;-0.33;76.06
68433;BME280;55412;51.350;17.056;2024-01-30T06:56:18;101838.19;;;-0.28;76.06
68433;BME280;55412;51.350;17.056;2024-01-30T06:58:50;101843.56;;;-0.23;76.15
68433;BME280;55412;51.350;17.056;2024-01-30T07:01:15;101845.97;;;-0.13;76.08
68433;BME280;55412;51.350;17.056;2024-01-30T07:03:42;101846.22;;;-0.09;75.87
68433;BME280;55412;51.350;17.056;2024-01-30T07:06:08;101836.16;;;-0.07;75.51
68433;BME280;55412;51.350;17.056;2024-01-30T07:08:34;101848.63;;;0.02;75.63
68433;BME280;55412;51.350;17.056;2024-01-30T07:11:00;101850.47;;;0.04;75.53
68433;BME280;55412;51.350;17.056;2024-01-30T07:13:27;101851.56;;;0.08;75.61
68433;BME280;55412;51.350;17.056;2024-01-30T07:15:53;101854.38;;;0.12;74.95
68433;BME280;55412;51.350;17.056;2024-01-30T07:18:19;101855.47;;;0.16;75.28
68433;BME280;55412;51.350;17.056;2024-01-30T07:20:44;101856.63;;;0.21;75.34
68433;BME280;55412;51.350;17.056;2024-01-30T07:23:15;101854.28;;;0.24;75.42
68433;BME280;55412;51.350;17.056;2024-01-30T07:25:45;101859.78;;;0.30;75.35
68433;BME280;55412;51.350;17.056;2024-01-30T07:28:12;101864.03;;;0.30;75.20
68433;BME280;55412;51.350;17.056;2024-01-30T07:30:39;101875.47;;;0.36;75.58
68433;BME280;55412;51.350;17.056;2024-01-30T07:33:04;101870.66;;;0.41;75.50
68433;BME280;55412;51.350;17.056;2024-01-30T07:35:30;101866.91;;;0.49;75.06
68433;BME280;55412;51.350;17.056;2024-01-30T07:37:56;101864.84;;;0.57;75.11
68433;BME280;55412;51.350;17.056;2024-01-30T07:40:22;101863.75;;;0.66;74.99
68433;BME280;55412;51.350;17.056;2024-01-30T07:42:49;101865.09;;;0.74;75.14
68433;BME280;55412;51.350;17.056;2024-01-30T07:45:14;101858.00;;;0.83;74.96
68433;BME280;55412;51.350;17.056;2024-01-30T07:47:40;101862.78;;;0.92;74.87
68433;BME280;55412;51.350;17.056;2024-01-30T07:50:08;101850.75;;;1.04;74.48
68433;BME280;55412;51.350;17.056;2024-01-30T07:52:34;101842.81;;;1.15;74.67
68433;BME280;55412;51.350;17.056;2024-01-30T07:55:00;101846.47;;;1.33;75.03
68433;BME280;55412;51.350;17.056;2024-01-30T07:57:26;101846.47;;;1.48;75.14
68433;BME280;55412;51.350;17.056;2024-01-30T07:59:51;101845.59;;;1.62;74.94
68433;BME280;55412;51.350;17.056;2024-01-30T08:02:17;101841.81;;;1.70;74.68
68433;BME280;55412;51.350;17.056;2024-01-30T08:04:43;101846.72;;;1.82;74.74
68433;BME280;55412;51.350;17.056;2024-01-30T08:07:09;101835.50;;;1.94;74.37
68433;BME280;55412;51.350;17.056;2024-01-30T08:09:34;101837.97;;;2.08;74.42
68433;BME280;55412;51.350;17.056;2024-01-30T08:12:00;101829.38;;;2.22;74.41
68433;BME280;55412;51.350;17.056;2024-01-30T08:14:26;101839.56;;;2.37;74.46
68433;BME280;55412;51.350;17.056;2024-01-30T08:16:53;101832.63;;;2.51;74.64
68433;BME280;55412;51.350;17.056;2024-01-30T08:19:19;101836.88;;;2.66;74.14
68433;BME280;55412;51.350;17.056;2024-01-30T08:21:44;101840.88;;;2.77;73.99
68433;BME280;55412;51.350;17.056;2024-01-30T08:24:10;101839.13;;;2.93;74.04
68433;BME280;55412;51.350;17.056;2024-01-30T08:26:36;101827.03;;;3.07;73.87
68433;BME280;55412;51.350;17.056;2024-01-30T08:29:02;101832.06;;;3.21;74.02
68433;BME280;55412;51.350;17.056;2024-01-30T08:31:28;101831.13;;;3.37;74.12
68433;BME280;55412;51.350;17.056;2024-01-30T08:33:53;101825.19;;;3.54;74.07
68433;BME280;55412;51.350;17.056;2024-01-30T08:36:19;101822.78;;;3.75;74.21
68433;BME280;55412;51.350;17.056;2024-01-30T08:38:45;101826.41;;;3.97;73.93
68433;BME280;55412;51.350;17.056;2024-01-30T08:41:11;101825.63;;;4.17;74.03
68433;BME280;55412;51.350;17.056;2024-01-30T08:43:39;101816.94;;;4.33;73.39
68433;BME280;55412;51.350;17.056;2024-01-30T08:46:05;101807.00;;;4.40;73.06
68433;BME280;55412;51.350;17.056;2024-01-30T08:48:30;101819.25;;;4.64;73.00
68433;BME280;55412;51.350;17.056;2024-01-30T08:50:56;101818.16;;;4.78;72.88
68433;BME280;55412;51.350;17.056;2024-01-30T08:53:22;101810.91;;;4.89;72.48
68433;BME280;55412;51.350;17.056;2024-01-30T08:55:47;101821.59;;;4.98;72.37
68433;BME280;55412;51.350;17.056;2024-01-30T08:58:13;101820.38;;;5.09;72.29
68433;BME280;55412;51.350;17.056;2024-01-30T09:00:40;101821.66;;;5.19;72.55
68433;BME280;55412;51.350;17.056;2024-01-30T09:03:06;101823.81;;;5.29;71.87
68433;BME280;55412;51.350;17.056;2024-01-30T09:05:32;101823.19;;;5.35;72.44
68433;BME280;55412;51.350;17.056;2024-01-30T09:07:58;101821.03;;;5.44;72.37
68433;BME280;55412;51.350;17.056;2024-01-30T09:10:23;101824.78;;;5.52;71.76
68433;BME280;55412;51.350;17.056;2024-01-30T09:12:49;101829.44;;;5.61;72.14
68433;BME280;55412;51.350;17.056;2024-01-30T09:15:15;101828.09;;;5.70;72.20
68433;BME280;55412;51.350;17.056;2024-01-30T09:17:40;101824.16;;;5.78;72.00
68433;BME280;55412;51.350;17.056;2024-01-30T09:20:06;101821.81;;;5.85;71.90
68433;BME280;55412;51.350;17.056;2024-01-30T09:22:32;101818.81;;;5.95;71.69
68433;BME280;55412;51.350;17.056;2024-01-30T09:24:58;101816.56;;;6.02;71.12
68433;BME280;55412;51.350;17.056;2024-01-30T09:27:24;101810.75;;;6.08;71.85
68433;BME280;55412;51.350;17.056;2024-01-30T09:29:50;101810.13;;;6.14;71.29
68433;BME280;55412;51.350;17.056;2024-01-30T09:32:16;101802.63;;;6.20;71.00
68433;BME280;55412;51.350;17.056;2024-01-30T09:34:43;101799.22;;;6.21;71.64
68433;BME280;55412;51.350;17.056;2024-01-30T09:37:08;101808.13;;;6.29;71.44
68433;BME280;55412;51.350;17.056;2024-01-30T09:39:34;101797.19;;;6.34;70.80
68433;BME280;55412;51.350;17.056;2024-01-30T09:42:34;101802.63;;;6.42;71.53
68433;BME280;55412;51.350;17.056;2024-01-30T09:45:04;101789.97;;;6.48;71.25
68433;BME280;55412;51.350;17.056;2024-01-30T09:47:32;101796.28;;;6.56;70.61
68433;BME280;55412;51.350;17.056;2024-01-30T09:49:58;101777.50;;;6.60;70.87
68433;BME280;55412;51.350;17.056;2024-01-30T09:52:24;101796.88;;;6.73;71.39
68433;BME280;55412;51.350;17.056;2024-01-30T09:54:51;101789.38;;;6.79;71.37
68433;BME280;55412;51.350;17.056;2024-01-30T09:57:17;101788.78;;;6.86;70.83
68433;BME280;55412;51.350;17.056;2024-01-30T09:59:43;101789.03;;;6.94;71.20
68433;BME280;55412;51.350;17.056;2024-01-30T10:02:10;101789.31;;;7.02;70.32
68433;BME280;55412;51.350;17.056;2024-01-30T10:04:35;101785.25;;;7.08;70.49
68433;BME280;55412;51.350;17.056;2024-01-30T10:07:04;101785.50;;;7.16;70.25
68433;BME280;55412;51.350;17.056;2024-01-30T10:09:32;101782.31;;;7.23;70.33
68433;BME280;55412;51.350;17.056;2024-01-30T10:11:59;101771.16;;;7.24;69.60
68433;BME280;55412;51.350;17.056;2024-01-30T10:14:25;101777.41;;;7.31;69.68
68433;BME280;55412;51.350;17.056;2024-01-30T10:16:51;101779.31;;;7.36;69.54
68433;BME280;55412;51.350;17.056;2024-01-30T10:19:17;101763.97;;;7.41;69.44
68433;BME280;55412;51.350;17.056;2024-01-30T10:21:42;101769.34;;;7.47;69.76
68433;BME280;55412;51.350;17.056;2024-01-30T10:24:10;101759.19;;;7.53;69.52
68433;BME280;55412;51.350;17.056;2024-01-30T10:26:38;101763.69;;;7.59;69.27
68433;BME280;55412;51.350;17.056;2024-01-30T10:29:04;101768.88;;;7.59;69.24
68433;BME280;55412;51.350;17.056;2024-01-30T10:31:30;101764.38;;;7.53;69.24
68433;BME280;55412;51.350;17.056;2024-01-30T10:33:56;101753.13;;;7.51;68.95
68433;BME280;55412;51.350;17.056;2024-01-30T10:36:28;101751.50;;;7.55;69.36
68433;BME280;55412;51.350;17.056;2024-01-30T10:38:59;101753.41;;;7.60;68.96
68433;BME280;55412;51.350;17.056;2024-01-30T10:41:31;101740.50;;;7.60;69.21
68433;BME280;55412;51.350;17.056;2024-01-30T10:44:09;101740.78;;;7.69;69.06
68433;BME280;55412;51.350;17.056;2024-01-30T10:46:38;101740.06;;;7.73;69.26
68433;BME280;55412;51.350;17.056;2024-01-30T10:49:04;101741.22;;;7.83;69.18
68433;BME280;55412;51.350;17.056;2024-01-30T10:51:32;101736.38;;;7.94;69.02
68433;BME280;55412;51.350;17.056;2024-01-30T10:54:00;101740.91;;;8.01;68.57
68433;BME280;55412;51.350;17.056;2024-01-30T10:56:27;101734.25;;;8.09;68.12
68433;BME280;55412;51.350;17.056;2024-01-30T10:58:53;101734.38;;;8.14;67.98
68433;BME280;55412;51.350;17.056;2024-01-30T11:01:22;101731.09;;;8.19;68.11
68433;BME280;55412;51.350;17.056;2024-01-30T11:03:53;101726.06;;;8.24;68.20
68433;BME280;55412;51.350;17.056;2024-01-30T11:06:23;101721.88;;;8.29;67.53
68433;BME280;55412;51.350;17.056;2024-01-30T11:09:02;101723.75;;;8.33;67.88
68433;BME280;55412;51.350;17.056;2024-01-30T11:12:11;101717.94;;;8.40;67.10
68433;BME280;55412;51.350;17.056;2024-01-30T11:14:37;101705.97;;;8.44;67.23
68433;BME280;55412;51.350;17.056;2024-01-30T11:17:05;101711.25;;;8.47;66.81
68433;BME280;55412;51.350;17.056;2024-01-30T11:19:32;101698.38;;;8.50;66.87
68433;BME280;55412;51.350;17.056;2024-01-30T11:21:58;101702.00;;;8.56;66.69
68433;BME280;55412;51.350;17.056;2024-01-30T11:24:24;101706.44;;;8.61;66.60
68433;BME280;55412;51.350;17.056;2024-01-30T11:26:55;101697.06;;;8.66;66.78
68433;BME280;55412;51.350;17.056;2024-01-30T11:29:30;101692.88;;;8.69;66.41
68433;BME280;55412;51.350;17.056;2024-01-30T11:31:57;101695.53;;;8.72;65.92
68433;BME280;55412;51.350;17.056;2024-01-30T11:34:24;101684.41;;;8.75;66.36
68433;BME280;55412;51.350;17.056;2024-01-30T11:36:56;101682.78;;;8.80;65.73
68433;BME280;55412;51.350;17.056;2024-01-30T11:39:25;101681.13;;;8.82;65.79
68433;BME280;55412;51.350;17.056;2024-01-30T11:41:52;101679.56;;;8.89;65.74
68433;BME280;55412;51.350;17.056;2024-01-30T11:44:21;101676.19;;;8.91;65.69
68433;BME280;55412;51.350;17.056;2024-01-30T11:46:51;101680.56;;;8.94;65.64
68433;BME280;55412;51.350;17.056;2024-01-30T11:49:18;101665.91;;;8.94;65.45
68433;BME280;55412;51.350;17.056;2024-01-30T11:51:47;101668.69;;;9.02;65.21
68433;BME280;55412;51.350;17.056;2024-01-30T11:54:18;101662.75;;;9.06;64.99
68433;BME280;55412;51.350;17.056;2024-01-30T11:56:43;101665.50;;;9.12;65.38
68433;BME280;55412;51.350;17.056;2024-01-30T11:59:09;101655.22;;;9.17;64.88
68433;BME280;55412;51.350;17.056;2024-01-30T12:01:36;101657.06;;;9.21;64.79
68433;BME280;55412;51.350;17.056;2024-01-30T12:04:02;101648.44;;;9.22;64.50
68433;BME280;55412;51.350;17.056;2024-01-30T12:06:28;101652.03;;;9.27;64.79
68433;BME280;55412;51.350;17.056;2024-01-30T12:09:02;101653.00;;;9.32;64.31
68433;BME280;55412;51.350;17.056;2024-01-30T12:11:46;101648.09;;;9.43;64.35
68433;BME280;55412;51.350;17.056;2024-01-30T12:14:12;101643.03;;;9.49;64.02
68433;BME280;55412;51.350;17.056;2024-01-30T12:16:38;101641.47;;;9.55;64.00
68433;BME280;55412;51.350;17.056;2024-01-30T12:19:04;101634.66;;;9.60;63.78
68433;BME280;55412;51.350;17.056;2024-01-30T12:21:30;101636.53;;;9.67;63.81
68433;BME280;55412;51.350;17.056;2024-01-30T12:23:57;101635.84;;;9.76;63.45
68433;BME280;55412;51.350;17.056;2024-01-30T12:26:26;101633.38;;;9.81;63.33
68433;BME280;55412;51.350;17.056;2024-01-30T12:28:54;101631.72;;;9.84;63.49
68433;BME280;55412;51.350;17.056;2024-01-30T12:31:32;101622.25;;;9.86;63.31
68433;BME280;55412;51.350;17.056;2024-01-30T12:34:00;101619.69;;;9.88;62.90
68433;BME280;55412;51.350;17.056;2024-01-30T12:36:26;101617.13;;;9.89;63.40
68433;BME280;55412;51.350;17.056;2024-01-30T12:38:52;101611.06;;;9.89;62.29
68433;BME280;55412;51.350;17.056;2024-01-30T12:41:20;101609.34;;;9.89;63.03
68433;BME280;55412;51.350;17.056;2024-01-30T12:43:45;101610.25;;;9.91;62.96
68433;BME280;55412;51.350;17.056;2024-01-30T12:46:13;101608.47;;;9.89;62.85